Time;durP1;ratioP1;P1;durP2;ratioP2;P2;SDS_P1;SDS_P2;PMS_P1;PMS_P2;Temp;Humidity;BMP_temperature;BMP_pressure;BME280_temperature;BME280_humidity;BME280_pressure;Samples;Min_cycle;Max_cycle;Signal;HPM_P1;HPM_P2
2021/01/23 00:01:32;;;;;;;38.33;18.80;;;4.40;99.90;;;;;;5308776;27;20163;-75
2021/01/23 00:03:59;;;;;;;36.80;19.03;;;4.20;99.90;;;;;;5309280;27;20142;-74
2021/01/23 00:06:25;;;;;;;39.20;19.10;;;4.20;99.90;;;;;;5307147;27;20157;-74
2021/01/23 00:08:52;;;;;;;39.27;18.97;;;4.10;99.90;;;;;;5306953;27;20419;-74
2021/01/23 00:11:19;;;;;;;37.90;20.27;;;4.10;99.90;;;;;;5309106;27;20158;-74
2021/01/23 00:13:46;;;;;;;38.13;19.43;;;4.00;99.90;;;;;;5309457;27;20183;-74
2021/01/23 00:16:12;;;;;;;42.33;19.97;;;3.90;99.90;;;;;;5309889;27;20165;-74
2021/01/23 00:18:39;;;;;;;38.87;19.40;;;3.90;99.90;;;;;;5309305;27;20125;-74
2021/01/23 00:21:06;;;;;;;39.63;20.17;;;3.90;99.90;;;;;;5310082;27;20220;-74
2021/01/23 00:23:33;;;;;;;40.97;19.20;;;3.80;99.90;;;;;;5290408;27;20399;-75
2021/01/23 00:25:59;;;;;;;45.67;21.77;;;3.80;99.90;;;;;;5309464;27;20159;-74
2021/01/23 00:28:26;;;;;;;46.37;21.53;;;3.80;99.90;;;;;;5309763;27;20409;-74
2021/01/23 00:30:53;;;;;;;42.47;20.60;;;3.80;99.90;;;;;;5308552;27;20115;-74
2021/01/23 00:33:20;;;;;;;41.03;20.17;;;3.70;99.90;;;;;;5310453;27;20166;-74
2021/01/23 00:35:47;;;;;;;44.57;21.80;;;3.60;99.90;;;;;;5309593;27;20142;-75
2021/01/23 00:38:14;;;;;;;42.50;21.53;;;3.60;99.90;;;;;;5308717;27;20406;-74
2021/01/23 00:40:41;;;;;;;40.27;21.47;;;3.60;99.90;;;;;;5309554;27;20392;-74
2021/01/23 00:43:08;;;;;;;46.50;22.23;;;3.60;99.90;;;;;;5309534;27;20409;-74
2021/01/23 00:45:35;;;;;;;45.93;22.83;;;3.60;99.90;;;;;;5310590;27;20408;-74
2021/01/23 00:48:12;;;;;;;43.63;22.57;;;3.50;99.90;;;;;;5309023;27;20130;-74
2021/01/23 00:50:40;;;;;;;45.83;23.20;;;3.50;99.90;;;;;;5309773;27;20479;-74
2021/01/23 00:53:06;;;;;;;47.00;23.20;;;3.50;99.90;;;;;;5309359;27;20481;-74
2021/01/23 00:55:33;;;;;;;44.70;23.57;;;3.40;99.90;;;;;;5311518;27;20145;-74
2021/01/23 00:58:00;;;;;;;49.70;24.00;;;3.40;99.90;;;;;;5309435;27;20463;-74
2021/01/23 01:00:27;;;;;;;51.30;23.77;;;3.20;99.90;;;;;;5310822;27;20147;-74
2021/01/23 01:02:54;;;;;;;44.63;22.67;;;3.20;99.90;;;;;;5309209;27;20153;-74
2021/01/23 01:05:21;;;;;;;45.37;24.33;;;3.10;99.90;;;;;;5309039;27;20114;-74
2021/01/23 01:07:48;;;;;;;48.47;24.57;;;3.10;99.90;;;;;;5308668;27;20481;-74
2021/01/23 01:10:14;;;;;;;48.00;23.43;;;3.00;99.90;;;;;;5310971;27;20125;-74
2021/01/23 01:12:41;;;;;;;51.07;24.43;;;2.90;99.90;;;;;;5309622;27;20110;-74
2021/01/23 01:15:08;;;;;;;46.83;23.97;;;3.00;99.90;;;;;;5309671;27;20427;-74
2021/01/23 01:17:35;;;;;;;49.90;24.00;;;3.00;99.90;;;;;;5308540;27;20130;-74
2021/01/23 01:20:02;;;;;;;51.33;23.80;;;2.90;99.90;;;;;;5309213;27;20172;-74
2021/01/23 01:22:30;;;;;;;46.23;24.23;;;2.90;99.90;;;;;;5309290;27;20474;-74
2021/01/23 01:24:56;;;;;;;48.80;23.97;;;2.90;99.90;;;;;;5309169;27;20137;-74
2021/01/23 01:27:23;;;;;;;47.80;24.07;;;2.90;99.90;;;;;;5308439;27;20145;-74
2021/01/23 01:29:50;;;;;;;53.67;25.83;;;2.90;99.90;;;;;;5309384;27;20494;-74
2021/01/23 01:32:16;;;;;;;46.37;24.03;;;2.80;99.90;;;;;;5308533;27;20150;-74
2021/01/23 01:34:43;;;;;;;45.40;22.93;;;2.80;99.90;;;;;;5309796;27;20150;-74
2021/01/23 01:37:10;;;;;;;45.33;23.30;;;2.80;99.90;;;;;;5308524;27;20114;-74
2021/01/23 01:39:37;;;;;;;42.87;23.20;;;2.80;99.90;;;;;;5309176;27;20164;-74
2021/01/23 01:42:07;;;;;;;49.43;24.37;;;2.80;99.90;;;;;;5309274;27;20142;-74
2021/01/23 01:44:34;;;;;;;46.23;23.63;;;2.70;99.90;;;;;;5309285;27;20141;-74
2021/01/23 01:47:01;;;;;;;46.23;23.73;;;2.70;99.90;;;;;;5308917;27;20122;-74
2021/01/23 01:49:29;;;;;;;46.47;23.63;;;2.70;99.90;;;;;;5309404;27;20176;-74
2021/01/23 01:51:56;;;;;;;46.17;23.53;;;2.70;99.90;;;;;;5308877;27;20152;-74
2021/01/23 01:54:24;;;;;;;45.07;24.00;;;2.80;99.90;;;;;;5308852;27;20167;-74
2021/01/23 01:56:54;;;;;;;48.03;24.03;;;2.80;99.90;;;;;;5308457;27;20114;-74
2021/01/23 01:59:21;;;;;;;45.93;24.10;;;2.80;99.90;;;;;;5310354;27;20314;-74
2021/01/23 02:01:49;;;;;;;46.20;24.80;;;2.80;99.90;;;;;;5309020;27;20147;-74
2021/01/23 02:04:38;;;;;;;48.17;24.03;;;2.80;99.90;;;;;;5310717;27;20149;-74
2021/01/23 02:07:26;;;;;;;45.30;23.47;;;2.70;99.90;;;;;;5308639;27;20138;-74
2021/01/23 02:10:09;;;;;;;46.13;23.23;;;2.80;99.90;;;;;;5309759;27;20128;-74
2021/01/23 02:12:53;;;;;;;44.53;22.83;;;2.80;99.90;;;;;;5309008;27;20161;-74
2021/01/23 02:15:23;;;;;;;44.77;22.77;;;2.80;99.90;;;;;;5310408;27;20114;-74
2021/01/23 02:17:57;;;;;;;46.83;23.30;;;2.80;99.90;;;;;;5308836;27;20426;-74
2021/01/23 02:20:55;;;;;;;42.80;23.20;;;2.80;99.90;;;;;;5309204;27;20467;-74
2021/01/23 02:23:28;;;;;;;45.43;22.60;;;2.70;99.90;;;;;;5309248;27;20122;-74
2021/01/23 02:26:10;;;;;;;42.07;22.50;;;2.70;99.90;;;;;;5309496;27;20111;-74
2021/01/23 02:28:39;;;;;;;44.00;21.87;;;2.70;99.90;;;;;;5308923;27;20137;-74
2021/01/23 02:31:09;;;;;;;42.10;22.03;;;2.70;99.90;;;;;;5308711;27;20141;-74
2021/01/23 02:33:37;;;;;;;40.60;21.67;;;2.70;99.90;;;;;;5309284;27;20155;-74
2021/01/23 02:36:07;;;;;;;40.60;22.10;;;2.60;99.90;;;;;;5310295;27;20391;-74
2021/01/23 02:38:35;;;;;;;44.67;22.80;;;2.60;99.90;;;;;;5308823;27;20432;-74
2021/01/23 02:41:03;;;;;;;43.10;21.80;;;2.50;99.90;;;;;;5308791;27;20120;-74
2021/01/23 02:43:41;;;;;;;43.37;22.43;;;2.50;99.90;;;;;;5309053;27;20207;-74
2021/01/23 02:46:11;;;;;;;43.80;22.13;;;2.40;99.90;;;;;;5308702;27;20114;-74
2021/01/23 02:48:39;;;;;;;40.03;21.23;;;2.40;99.90;;;;;;5308780;27;20122;-75
2021/01/23 02:51:18;;;;;;;42.73;22.00;;;2.30;99.90;;;;;;5308260;27;20129;-74
2021/01/23 02:53:47;;;;;;;41.83;22.27;;;2.30;99.90;;;;;;5308637;27;20141;-74
2021/01/23 02:56:24;;;;;;;39.47;21.10;;;2.20;99.90;;;;;;5308666;27;20330;-74
2021/01/23 02:59:00;;;;;;;42.30;21.27;;;2.10;99.90;;;;;;5309283;27;20128;-76
2021/01/23 03:01:30;;;;;;;39.67;21.10;;;2.10;99.90;;;;;;5310074;27;20179;-74
2021/01/23 03:03:58;;;;;;;42.23;21.27;;;2.10;99.90;;;;;;5309328;27;20162;-75
2021/01/23 03:06:30;;;;;;;42.03;21.60;;;2.00;99.90;;;;;;5309772;27;20142;-75
2021/01/23 03:08:58;;;;;;;41.83;22.10;;;2.00;99.90;;;;;;5308856;27;20141;-75
2021/01/23 03:11:24;;;;;;;41.73;22.07;;;2.00;99.90;;;;;;5308936;27;20149;-74
2021/01/23 03:13:51;;;;;;;43.17;22.20;;;2.00;99.90;;;;;;5309035;27;20148;-74
2021/01/23 03:16:18;;;;;;;44.57;22.37;;;1.90;99.90;;;;;;5308712;27;20134;-75
2021/01/23 03:18:45;;;;;;;46.27;22.00;;;1.90;99.90;;;;;;5308634;27;20118;-75
2021/01/23 03:21:12;;;;;;;44.70;22.17;;;1.90;99.90;;;;;;5309014;27;20221;-75
2021/01/23 03:23:40;;;;;;;40.73;22.27;;;1.90;99.90;;;;;;5308700;27;20110;-75
2021/01/23 03:26:07;;;;;;;46.00;22.03;;;1.80;99.90;;;;;;5309374;27;20142;-75
2021/01/23 03:28:33;;;;;;;41.63;22.07;;;1.90;99.90;;;;;;5308524;27;20114;-75
2021/01/23 03:31:00;;;;;;;49.23;23.07;;;1.90;99.90;;;;;;5310099;27;20162;-75
2021/01/23 03:33:27;;;;;;;41.77;22.80;;;1.90;99.90;;;;;;5310054;27;20146;-75
2021/01/23 03:35:54;;;;;;;46.63;22.97;;;1.90;99.90;;;;;;5310013;27;20140;-75
2021/01/23 03:38:20;;;;;;;41.67;22.53;;;1.90;99.90;;;;;;5309857;27;20113;-75
2021/01/23 03:40:51;;;;;;;44.70;22.20;;;1.80;99.90;;;;;;5310337;27;20113;-75
2021/01/23 03:43:18;;;;;;;43.37;22.77;;;1.90;99.90;;;;;;5310008;27;20114;-75
2021/01/23 03:45:45;;;;;;;45.50;24.13;;;1.90;99.90;;;;;;5309882;27;20114;-75
2021/01/23 03:48:12;;;;;;;44.33;22.30;;;1.80;99.90;;;;;;5309728;27;20133;-75
2021/01/23 03:50:40;;;;;;;48.43;24.63;;;1.80;99.90;;;;;;5309934;27;20125;-75
2021/01/23 03:53:06;;;;;;;44.87;23.30;;;1.90;99.90;;;;;;5309847;27;20168;-75
2021/01/23 03:55:33;;;;;;;45.40;23.93;;;1.90;99.90;;;;;;5289546;27;20464;-75
2021/01/23 03:58:00;;;;;;;45.50;24.10;;;1.90;99.90;;;;;;5310373;27;20125;-75
2021/01/23 04:00:27;;;;;;;47.13;23.43;;;1.90;99.90;;;;;;5309723;27;20231;-75
2021/01/23 04:02:54;;;;;;;46.47;23.93;;;1.80;99.90;;;;;;5309626;27;20125;-75
2021/01/23 04:05:22;;;;;;;45.77;23.87;;;1.80;99.90;;;;;;5309762;27;20504;-75
2021/01/23 04:07:50;;;;;;;46.83;23.87;;;1.80;99.90;;;;;;5308699;27;20149;-75
2021/01/23 04:10:17;;;;;;;45.63;23.67;;;1.90;99.90;;;;;;5309903;27;20167;-75
2021/01/23 04:12:44;;;;;;;45.63;23.70;;;1.90;99.90;;;;;;5311559;27;20115;-75
2021/01/23 04:15:12;;;;;;;49.07;24.03;;;1.90;99.90;;;;;;5310149;27;20114;-74
2021/01/23 04:17:39;;;;;;;46.20;23.97;;;1.80;99.90;;;;;;5309708;27;20137;-74
2021/01/23 04:20:07;;;;;;;45.57;22.83;;;1.80;99.90;;;;;;5309844;27;20137;-75
2021/01/23 04:22:34;;;;;;;49.63;23.83;;;1.80;99.90;;;;;;5309700;27;20126;-74
2021/01/23 04:25:04;;;;;;;51.13;25.17;;;1.80;99.90;;;;;;5310334;27;20110;-74
2021/01/23 04:27:31;;;;;;;49.67;25.20;;;1.80;99.90;;;;;;5309922;27;20137;-74
2021/01/23 04:29:59;;;;;;;50.20;24.67;;;1.90;99.90;;;;;;5309995;27;20114;-74
2021/01/23 04:32:26;;;;;;;49.40;24.93;;;2.00;99.90;;;;;;5308938;27;20110;-75
2021/01/23 04:34:54;;;;;;;49.93;25.10;;;2.00;99.90;;;;;;5309576;27;20125;-75
2021/01/23 04:37:21;;;;;;;52.27;24.70;;;2.00;99.90;;;;;;5311712;27;20117;-74
2021/01/23 04:39:48;;;;;;;48.03;24.60;;;2.10;99.90;;;;;;5309507;27;20113;-75
2021/01/23 04:42:15;;;;;;;46.97;23.83;;;2.10;99.90;;;;;;5310870;27;20121;-75
2021/01/23 04:44:42;;;;;;;49.33;25.23;;;2.20;99.90;;;;;;5309559;27;20110;-75
2021/01/23 04:47:09;;;;;;;49.40;25.20;;;2.20;99.90;;;;;;5309483;27;20529;-74
2021/01/23 04:49:36;;;;;;;46.50;23.60;;;2.30;99.90;;;;;;5309436;27;20130;-75
2021/01/23 04:52:05;;;;;;;53.93;24.43;;;2.40;99.90;;;;;;5310063;27;20109;-75
2021/01/23 04:54:34;;;;;;;49.37;24.07;;;2.40;99.90;;;;;;5310357;27;20132;-75
2021/01/23 04:57:02;;;;;;;45.27;23.97;;;2.50;99.90;;;;;;5309479;27;20133;-75
2021/01/23 04:59:30;;;;;;;52.43;24.50;;;2.40;99.90;;;;;;5308934;27;20114;-75
2021/01/23 05:02:17;;;;;;;43.73;23.17;;;2.50;99.90;;;;;;5310726;27;20160;-75
2021/01/23 05:04:52;;;;;;;50.77;23.73;;;2.60;99.90;;;;;;5309073;27;20110;-74
2021/01/23 05:07:30;;;;;;;47.23;23.97;;;2.60;99.90;;;;;;5309675;27;20137;-75
2021/01/23 05:10:13;;;;;;;45.70;23.33;;;2.70;99.90;;;;;;5309549;27;20157;-75
2021/01/23 05:12:45;;;;;;;47.57;23.07;;;2.70;99.90;;;;;;5311644;27;20163;-74
2021/01/23 05:15:22;;;;;;;47.87;22.20;;;2.80;99.90;;;;;;5308780;27;20395;-74
2021/01/23 05:18:05;;;;;;;46.67;23.60;;;2.80;99.90;;;;;;5310552;27;20128;-74
2021/01/23 05:20:38;;;;;;;46.10;23.20;;;2.80;99.90;;;;;;5309278;27;20345;-74
2021/01/23 05:23:24;;;;;;;47.63;23.67;;;2.80;99.90;;;;;;5309335;27;20114;-75
2021/01/23 05:25:52;;;;;;;47.83;22.40;;;2.90;99.90;;;;;;5311216;27;20129;-75
2021/01/23 05:28:38;;;;;;;45.53;22.70;;;2.80;99.90;;;;;;5309031;27;20122;-75
2021/01/23 05:31:17;;;;;;;45.60;22.03;;;2.80;99.90;;;;;;5309732;27;20125;-75
2021/01/23 05:33:44;;;;;;;44.20;22.07;;;2.90;99.90;;;;;;5309216;27;20158;-75
2021/01/23 05:36:12;;;;;;;48.03;23.33;;;2.90;99.90;;;;;;5309227;27;20122;-75
2021/01/23 05:38:41;;;;;;;43.33;22.03;;;2.90;99.90;;;;;;5308568;27;20121;-75
2021/01/23 05:41:08;;;;;;;48.90;23.87;;;2.90;99.90;;;;;;5309238;27;20121;-74
2021/01/23 05:43:44;;;;;;;54.10;24.23;;;2.90;99.90;;;;;;5310657;27;20121;-74
2021/01/23 05:46:20;;;;;;;49.17;24.00;;;2.90;99.90;;;;;;5309942;27;20113;-74
2021/01/23 05:48:48;;;;;;;48.37;24.67;;;2.80;99.90;;;;;;5309255;27;20137;-74
2021/01/23 05:51:17;;;;;;;49.97;24.97;;;2.80;99.90;;;;;;5310131;27;20106;-74
2021/01/23 05:53:46;;;;;;;48.23;24.40;;;2.90;99.90;;;;;;5311224;27;20489;-74
2021/01/23 05:56:14;;;;;;;49.50;24.40;;;2.90;99.90;;;;;;5309032;27;20122;-74
2021/01/23 05:58:43;;;;;;;46.13;24.17;;;2.90;99.90;;;;;;5309208;27;20398;-75
2021/01/23 06:01:12;;;;;;;50.33;24.37;;;2.90;99.90;;;;;;5309460;27;20125;-74
2021/01/23 06:03:44;;;;;;;45.83;24.23;;;3.00;99.90;;;;;;5308485;27;20114;-74
2021/01/23 06:06:11;;;;;;;49.63;23.27;;;3.00;99.90;;;;;;5308764;27;20115;-74
2021/01/23 06:08:53;;;;;;;46.47;23.27;;;3.10;99.90;;;;;;5309680;27;20129;-74
2021/01/23 06:11:20;;;;;;;44.37;23.03;;;3.10;99.90;;;;;;5309045;27;20155;-74
2021/01/23 06:13:51;;;;;;;45.37;22.50;;;3.20;99.90;;;;;;5309242;27;20517;-74
2021/01/23 06:16:36;;;;;;;47.40;23.90;;;3.30;99.90;;;;;;5309370;27;20110;-74
2021/01/23 06:19:06;;;;;;;49.43;22.93;;;3.40;99.90;;;;;;5308319;27;20114;-74
2021/01/23 06:21:42;;;;;;;43.67;22.77;;;3.40;99.90;;;;;;5308946;27;20136;-74
2021/01/23 06:24:14;;;;;;;43.60;22.63;;;3.40;99.90;;;;;;5310858;27;20125;-73
2021/01/23 06:26:53;;;;;;;40.10;21.27;;;3.50;99.90;;;;;;5309129;27;20369;-74
2021/01/23 06:29:42;;;;;;;41.33;22.27;;;3.60;99.90;;;;;;5308939;27;20138;-74
2021/01/23 06:32:11;;;;;;;43.37;21.33;;;3.70;99.90;;;;;;5309610;27;20109;-74
2021/01/23 06:35:01;;;;;;;43.90;22.13;;;3.70;99.90;;;;;;5308337;27;20129;-74
2021/01/23 06:37:42;;;;;;;41.83;21.80;;;3.80;99.90;;;;;;5309418;27;20126;-74
2021/01/23 06:40:11;;;;;;;42.10;22.70;;;3.80;99.90;;;;;;5308992;27;20128;-74
2021/01/23 06:42:40;;;;;;;40.77;21.90;;;3.80;99.90;;;;;;5308252;27;20417;-75
2021/01/23 06:45:19;;;;;;;45.87;22.40;;;3.80;99.90;;;;;;5309275;27;20320;-75
2021/01/23 06:47:52;;;;;;;43.77;21.87;;;3.90;99.90;;;;;;5309376;27;20121;-75
2021/01/23 06:50:43;;;;;;;43.67;21.47;;;3.90;99.90;;;;;;5308804;27;20110;-75
2021/01/23 06:53:19;;;;;;;41.37;21.20;;;3.90;99.90;;;;;;5308985;27;20379;-75
2021/01/23 06:55:54;;;;;;;41.13;21.63;;;3.90;99.90;;;;;;5309562;27;20155;-75
2021/01/23 06:58:29;;;;;;;46.53;22.37;;;3.90;99.90;;;;;;5308972;27;20110;-74
2021/01/23 07:01:00;;;;;;;46.33;22.47;;;3.80;99.90;;;;;;5310973;27;20115;-75
2021/01/23 07:03:29;;;;;;;46.60;22.63;;;3.80;99.90;;;;;;5309965;27;20133;-75
2021/01/23 07:06:02;;;;;;;42.03;22.77;;;3.90;99.90;;;;;;5312000;27;20444;-76
2021/01/23 07:08:31;;;;;;;43.97;23.07;;;3.90;99.90;;;;;;5310655;27;20152;-76
2021/01/23 07:11:12;;;;;;;40.27;21.77;;;4.00;99.90;;;;;;5310199;27;20136;-76
2021/01/23 07:13:56;;;;;;;42.30;21.60;;;4.00;99.90;;;;;;5310841;27;20114;-76
2021/01/23 07:16:23;;;;;;;41.37;22.13;;;4.00;99.90;;;;;;5311290;27;20380;-75
2021/01/23 07:18:52;;;;;;;44.90;22.67;;;4.00;99.90;;;;;;5310545;27;20429;-76
2021/01/23 07:21:21;;;;;;;41.03;21.63;;;4.00;99.90;;;;;;5310148;27;20123;-76
2021/01/23 07:23:48;;;;;;;40.87;21.83;;;4.10;99.90;;;;;;5310148;27;20114;-76
2021/01/23 07:26:16;;;;;;;47.00;22.67;;;4.20;99.90;;;;;;5309900;27;20342;-75
2021/01/23 07:28:51;;;;;;;39.50;21.20;;;4.20;99.90;;;;;;5309963;27;20149;-75
2021/01/23 07:31:30;;;;;;;39.10;21.17;;;4.30;99.90;;;;;;5310123;27;20118;-75
2021/01/23 07:34:00;;;;;;;41.77;21.47;;;4.30;99.90;;;;;;5310259;27;20141;-75
2021/01/23 07:36:34;;;;;;;45.63;22.43;;;4.20;99.90;;;;;;5309951;27;20164;-80
2021/01/23 07:39:05;;;;;;;42.73;21.30;;;4.30;99.90;;;;;;5310882;27;20109;-75
2021/01/23 07:41:34;;;;;;;43.50;21.77;;;4.40;99.90;;;;;;5310041;27;20204;-75
2021/01/23 07:44:03;;;;;;;37.37;21.17;;;4.40;99.90;;;;;;5310294;27;20125;-75
2021/01/23 07:46:39;;;;;;;40.93;21.90;;;4.50;99.90;;;;;;5310953;27;20370;-75
2021/01/23 07:49:08;;;;;;;39.87;21.20;;;4.50;99.90;;;;;;5309386;27;20120;-74
2021/01/23 07:51:36;;;;;;;42.23;21.30;;;4.50;99.90;;;;;;5309869;27;20125;-75
2021/01/23 07:54:07;;;;;;;45.07;22.70;;;4.50;99.90;;;;;;5309851;27;20122;-75
2021/01/23 07:56:35;;;;;;;42.57;21.53;;;4.50;99.90;;;;;;5309324;27;20114;-75
2021/01/23 07:59:04;;;;;;;40.53;21.93;;;4.50;99.90;;;;;;5309874;27;20169;-75
2021/01/23 08:01:31;;;;;;;39.97;22.10;;;4.50;99.90;;;;;;5310147;27;20455;-77
2021/01/23 08:03:59;;;;;;;41.17;21.63;;;4.50;99.90;;;;;;5308739;27;20114;-75
2021/01/23 08:06:26;;;;;;;39.30;22.60;;;4.50;99.90;;;;;;5309783;27;20174;-75
2021/01/23 08:08:53;;;;;;;41.00;21.70;;;4.60;99.90;;;;;;5311621;27;20160;-75
2021/01/23 08:11:41;;;;;;;43.97;23.00;;;4.60;99.90;;;;;;5309774;27;20160;-75
2021/01/23 08:14:10;;;;;;;43.93;23.43;;;4.60;99.90;;;;;;5310306;27;20144;-75
2021/01/23 08:16:53;;;;;;;44.00;23.10;;;4.70;99.90;;;;;;5309914;27;20152;-74
2021/01/23 08:19:21;;;;;;;44.33;23.03;;;4.70;99.90;;;;;;5309443;27;20163;-75
2021/01/23 08:22:04;;;;;;;45.13;23.20;;;4.80;99.90;;;;;;5310246;27;20121;-74
2021/01/23 08:24:31;;;;;;;45.93;23.10;;;4.80;99.90;;;;;;5311035;27;20336;-75
2021/01/23 08:27:17;;;;;;;42.73;22.93;;;4.90;99.90;;;;;;5309977;27;20160;-74
2021/01/23 08:29:48;;;;;;;39.43;21.73;;;5.00;99.90;;;;;;5309673;27;20115;-74
2021/01/23 08:32:15;;;;;;;43.80;22.53;;;5.00;99.90;;;;;;5309121;27;20125;-77
2021/01/23 08:34:44;;;;;;;42.13;22.07;;;5.00;99.90;;;;;;5308980;27;20472;-75
2021/01/23 08:37:11;;;;;;;44.20;22.40;;;5.00;99.90;;;;;;5309927;27;20115;-76
2021/01/23 08:39:49;;;;;;;43.80;22.70;;;5.00;99.90;;;;;;5309608;27;20414;-76
2021/01/23 08:42:15;;;;;;;42.80;22.17;;;5.10;99.90;;;;;;5308988;27;20126;-76
2021/01/23 08:44:42;;;;;;;40.43;22.10;;;5.20;99.90;;;;;;5308947;27;20136;-76
2021/01/23 08:47:09;;;;;;;43.37;23.17;;;5.10;99.90;;;;;;5309448;27;20138;-76
2021/01/23 08:49:36;;;;;;;43.93;22.43;;;5.20;99.90;;;;;;5309461;27;20118;-76
2021/01/23 08:52:03;;;;;;;41.90;22.67;;;5.10;99.90;;;;;;5308823;27;20116;-76
2021/01/23 08:54:29;;;;;;;42.00;22.70;;;5.10;99.90;;;;;;5307636;27;20134;-74
2021/01/23 08:56:56;;;;;;;39.23;21.77;;;5.20;99.90;;;;;;5308802;27;20437;-74
2021/01/23 08:59:23;;;;;;;37.13;20.70;;;5.30;99.90;;;;;;5308715;27;20176;-74
2021/01/23 09:01:49;;;;;;;38.50;21.27;;;5.30;99.90;;;;;;5308511;27;20129;-74
2021/01/23 09:04:16;;;;;;;37.10;21.30;;;5.30;99.90;;;;;;5309149;27;20110;-74
2021/01/23 09:06:44;;;;;;;36.87;21.07;;;5.30;99.90;;;;;;5309772;27;20142;-74
2021/01/23 09:09:11;;;;;;;41.63;21.03;;;5.40;99.90;;;;;;5311476;27;20120;-74
2021/01/23 09:11:38;;;;;;;36.80;21.23;;;5.40;99.90;;;;;;5309295;27;20168;-74
2021/01/23 09:14:05;;;;;;;36.97;21.10;;;5.40;99.90;;;;;;5308888;27;20120;-74
2021/01/23 09:16:32;;;;;;;37.53;20.90;;;5.50;99.90;;;;;;5308609;27;20110;-74
2021/01/23 09:19:00;;;;;;;34.83;20.97;;;5.60;99.90;;;;;;5309019;27;20131;-74
2021/01/23 09:21:27;;;;;;;38.97;21.40;;;5.60;99.90;;;;;;5308869;27;20171;-74
2021/01/23 09:23:53;;;;;;;37.93;20.53;;;5.60;99.90;;;;;;5309501;27;20125;-74
2021/01/23 09:26:20;;;;;;;35.50;20.20;;;5.70;99.90;;;;;;5310576;27;20357;-74
2021/01/23 09:28:47;;;;;;;33.10;19.97;;;5.80;99.90;;;;;;5308677;27;20484;-73
2021/01/23 09:31:13;;;;;;;35.93;20.73;;;5.80;99.90;;;;;;5307894;27;20164;-73
2021/01/23 09:33:40;;;;;;;34.33;19.47;;;5.80;99.90;;;;;;5308285;27;20114;-73
2021/01/23 09:36:07;;;;;;;32.10;18.43;;;5.90;99.90;;;;;;5308433;27;20172;-73
2021/01/23 09:38:34;;;;;;;32.13;18.10;;;6.00;99.90;;;;;;5308469;27;20364;-73
2021/01/23 09:41:00;;;;;;;30.60;18.57;;;6.00;99.90;;;;;;5311107;27;20114;-73
2021/01/23 09:43:27;;;;;;;29.83;18.40;;;6.00;99.90;;;;;;5307834;27;20170;-74
2021/01/23 09:45:54;;;;;;;32.93;18.67;;;6.10;99.90;;;;;;5310224;27;20157;-73
2021/01/23 09:48:21;;;;;;;29.07;17.33;;;6.10;99.90;;;;;;5308909;27;20143;-74
2021/01/23 09:50:48;;;;;;;28.20;17.37;;;6.10;99.90;;;;;;5308305;27;20150;-73
2021/01/23 09:53:14;;;;;;;28.93;16.37;;;6.10;99.90;;;;;;5309130;27;20351;-73
2021/01/23 09:55:42;;;;;;;29.40;17.40;;;6.20;99.90;;;;;;5308874;27;20153;-74
2021/01/23 09:58:08;;;;;;;28.40;16.77;;;6.30;99.90;;;;;;5310504;27;20110;-73
2021/01/23 10:00:36;;;;;;;29.00;16.57;;;6.30;99.90;;;;;;5308883;27;20122;-73
2021/01/23 10:03:04;;;;;;;28.53;16.37;;;6.30;99.90;;;;;;5309468;27;20179;-73
2021/01/23 10:05:31;;;;;;;30.33;16.27;;;6.20;99.90;;;;;;5309011;27;20110;-73
2021/01/23 10:07:58;;;;;;;29.90;16.20;;;6.30;99.90;;;;;;5308920;27;20231;-73
2021/01/23 10:10:25;;;;;;;27.90;16.23;;;6.30;99.90;;;;;;5308923;27;20181;-73
2021/01/23 10:12:52;;;;;;;26.07;15.80;;;6.30;99.90;;;;;;5308951;27;20155;-73
2021/01/23 10:15:18;;;;;;;26.00;16.23;;;6.40;99.90;;;;;;5308851;27;20112;-73
2021/01/23 10:17:45;;;;;;;24.63;15.27;;;6.50;99.90;;;;;;5309213;27;20128;-73
2021/01/23 10:20:12;;;;;;;24.43;14.70;;;6.50;99.90;;;;;;5308903;27;20119;-73
2021/01/23 10:22:39;;;;;;;27.17;15.27;;;6.50;99.90;;;;;;5308921;27;20148;-73
2021/01/23 10:25:06;;;;;;;26.43;16.03;;;6.50;99.90;;;;;;5308569;27;20153;-73
2021/01/23 10:27:34;;;;;;;24.93;14.80;;;6.50;99.90;;;;;;5308614;27;20154;-73
2021/01/23 10:30:03;;;;;;;24.40;15.30;;;6.50;99.90;;;;;;5310246;27;20132;-73
2021/01/23 10:32:31;;;;;;;23.10;14.13;;;6.50;99.90;;;;;;5310848;27;20164;-73
2021/01/23 10:34:58;;;;;;;27.43;14.63;;;6.60;99.90;;;;;;5308936;27;20169;-73
2021/01/23 10:37:24;;;;;;;24.57;14.40;;;6.60;99.90;;;;;;5308642;27;20112;-73
2021/01/23 10:39:51;;;;;;;24.50;14.50;;;6.60;99.90;;;;;;5309755;27;20131;-73
2021/01/23 10:42:17;;;;;;;22.40;13.83;;;6.60;99.90;;;;;;5308357;27;20186;-71
2021/01/23 10:44:44;;;;;;;25.20;14.90;;;6.60;99.90;;;;;;5308204;27;20158;-72
2021/01/23 10:47:12;;;;;;;20.53;14.20;;;6.70;99.90;;;;;;5308785;27;20165;-72
2021/01/23 10:49:39;;;;;;;22.83;14.07;;;6.80;99.90;;;;;;5306353;27;20141;-71
2021/01/23 10:52:06;;;;;;;24.00;13.83;;;6.80;99.90;;;;;;5306861;27;20385;-72
2021/01/23 10:54:32;;;;;;;23.53;14.23;;;6.80;99.90;;;;;;5309322;27;20116;-71
2021/01/23 10:57:07;;;;;;;20.60;13.27;;;6.70;99.90;;;;;;5310465;27;20116;-72
2021/01/23 11:00:21;;;;;;;22.07;13.27;;;6.70;99.90;;;;;;5308899;27;20110;-71
2021/01/23 11:03:09;;;;;;;26.00;13.87;;;6.60;99.90;;;;;;5299007;27;20170;-72
2021/01/23 11:05:37;;;;;;;23.30;13.73;;;6.60;99.90;;;;;;5308683;27;20176;-73
2021/01/23 11:08:04;;;;;;;23.53;14.53;;;6.60;99.90;;;;;;5308246;27;20332;-73
2021/01/23 11:10:31;;;;;;;21.43;13.47;;;6.60;99.90;;;;;;5308647;27;20123;-74
2021/01/23 11:12:57;;;;;;;23.40;14.00;;;6.60;99.90;;;;;;5310606;27;20144;-73
2021/01/23 11:15:25;;;;;;;22.30;13.97;;;6.60;99.90;;;;;;5307871;27;20389;-73
2021/01/23 11:17:51;;;;;;;24.30;13.97;;;6.60;99.90;;;;;;5308455;27;20116;-73
2021/01/23 11:20:18;;;;;;;22.97;13.43;;;6.60;99.90;;;;;;5308679;27;20115;-73
2021/01/23 11:22:46;;;;;;;22.70;13.77;;;6.50;99.90;;;;;;5308774;27;20114;-73
2021/01/23 11:25:14;;;;;;;23.70;14.97;;;6.50;99.90;;;;;;5308030;27;20128;-73
2021/01/23 11:27:42;;;;;;;24.10;14.03;;;6.50;99.90;;;;;;5309380;27;20164;-74
2021/01/23 11:30:10;;;;;;;27.60;14.17;;;6.50;99.90;;;;;;5310036;27;20150;-74
2021/01/23 11:32:37;;;;;;;23.83;15.13;;;6.40;99.90;;;;;;5307913;27;20159;-74
2021/01/23 11:35:07;;;;;;;29.77;15.87;;;6.40;99.90;;;;;;5308183;27;20491;-74
2021/01/23 11:37:35;;;;;;;25.00;15.00;;;6.30;99.90;;;;;;5308010;27;20126;-73
2021/01/23 11:40:04;;;;;;;25.63;15.87;;;6.30;99.90;;;;;;5308563;27;20112;-76
2021/01/23 11:42:32;;;;;;;25.53;15.00;;;6.20;99.90;;;;;;5307877;27;20109;-72
2021/01/23 11:44:58;;;;;;;26.93;15.70;;;6.20;99.90;;;;;;5308413;27;20116;-73
2021/01/23 11:47:25;;;;;;;27.73;16.63;;;6.10;99.90;;;;;;5308574;27;20155;-73
2021/01/23 11:49:52;;;;;;;26.87;16.07;;;6.10;99.90;;;;;;5308484;27;20397;-74
2021/01/23 11:52:19;;;;;;;26.37;15.93;;;6.10;99.90;;;;;;5309824;27;20117;-75
2021/01/23 11:54:45;;;;;;;26.37;16.47;;;6.20;99.90;;;;;;5310514;27;20114;-73
2021/01/23 11:57:13;;;;;;;28.87;16.63;;;6.20;99.90;;;;;;5307909;27;20214;-73
2021/01/23 11:59:41;;;;;;;30.37;15.93;;;6.10;99.90;;;;;;5309836;27;20111;-70
2021/01/23 12:02:08;;;;;;;28.03;16.20;;;6.10;99.90;;;;;;5311694;27;20157;-73
2021/01/23 12:04:35;;;;;;;28.23;16.97;;;6.10;99.90;;;;;;5309431;27;20115;-72
2021/01/23 12:07:01;;;;;;;26.80;16.07;;;6.10;99.90;;;;;;5309345;27;20221;-73
2021/01/23 12:09:28;;;;;;;28.27;16.13;;;6.10;99.90;;;;;;5311800;27;20143;-73
2021/01/23 12:11:55;;;;;;;27.30;16.20;;;6.10;99.90;;;;;;5309441;27;20116;-74
2021/01/23 12:14:22;;;;;;;27.53;15.90;;;6.20;99.90;;;;;;5311731;27;20114;-75
2021/01/23 12:16:48;;;;;;;27.83;16.33;;;6.10;99.90;;;;;;5308241;27;20194;-76
2021/01/23 12:19:15;;;;;;;27.30;15.07;;;6.10;99.90;;;;;;5307987;27;20446;-74
2021/01/23 12:21:43;;;;;;;27.50;15.17;;;6.10;99.90;;;;;;5307789;27;20115;-74
2021/01/23 12:24:10;;;;;;;25.57;14.73;;;6.20;99.90;;;;;;5310591;27;20164;-74
2021/01/23 12:26:37;;;;;;;27.93;15.13;;;6.20;99.90;;;;;;5311642;27;20125;-73
2021/01/23 12:29:04;;;;;;;28.10;15.10;;;6.20;99.90;;;;;;5311547;27;20132;-74
2021/01/23 12:31:32;;;;;;;26.23;15.10;;;6.20;99.90;;;;;;5310243;27;20115;-74
2021/01/23 12:33:59;;;;;;;25.00;14.47;;;6.20;99.90;;;;;;5309692;27;20117;-73
2021/01/23 12:36:26;;;;;;;26.20;15.00;;;6.20;99.90;;;;;;5308366;27;20404;-73
2021/01/23 12:38:53;;;;;;;23.30;14.90;;;6.20;99.90;;;;;;5309356;27;20133;-74
2021/01/23 12:41:20;;;;;;;24.83;14.27;;;6.20;99.90;;;;;;5308649;27;20115;-74
2021/01/23 12:43:46;;;;;;;24.97;14.53;;;6.10;99.90;;;;;;5308960;27;20113;-74
2021/01/23 12:46:13;;;;;;;23.80;14.40;;;6.10;99.90;;;;;;5309221;27;20112;-74
2021/01/23 12:48:40;;;;;;;27.60;14.80;;;6.20;99.90;;;;;;5308641;27;20165;-74